createdAt,value
2019-03-27T00:00:02.969Z,112.13
2019-03-27T00:02:36.043Z,115.13
2019-03-27T00:05:07.729Z,106.90
2019-03-27T00:07:39.357Z,111.13
2019-03-27T00:10:23.286Z,107.03
2019-03-27T00:12:54.751Z,108.80
2019-03-27T00:15:26.407Z,112.77
2019-03-27T00:17:57.982Z,107.07
2019-03-27T00:20:29.728Z,105.20
2019-03-27T00:23:01.398Z,96.17
2019-03-27T00:25:33.143Z,118.67
2019-03-27T00:28:05.002Z,115.30
2019-03-27T00:30:36.867Z,103.33
2019-03-27T00:33:08.316Z,107.63
2019-03-27T00:35:40.194Z,102.87
2019-03-27T00:38:11.851Z,98.07
2019-03-27T00:40:44.721Z,106.53
2019-03-27T00:43:16.481Z,102.93
2019-03-27T00:45:47.963Z,104.73
2019-03-27T00:48:19.916Z,110.73
2019-03-27T00:50:51.574Z,109.50
2019-03-27T00:53:23.433Z,103.43
2019-03-27T00:55:55.187Z,104.83
2019-03-27T00:58:26.947Z,98.80
2019-03-27T01:01:07.186Z,99.67
2019-03-27T01:03:38.762Z,105.90
2019-03-27T01:06:11.343Z,101.67
2019-03-27T01:08:42.979Z,99.00
2019-03-27T01:11:14.866Z,92.83
2019-03-27T01:13:46.413Z,92.77
2019-03-27T01:16:19.632Z,109.00
2019-03-27T01:18:51.163Z,106.57
2019-03-27T01:21:22.824Z,100.13
2019-03-27T01:23:54.564Z,111.20
2019-03-27T01:26:26.449Z,109.40
2019-03-27T01:28:58.007Z,110.50
2019-03-27T01:31:29.868Z,112.17
2019-03-27T01:34:01.843Z,106.10
2019-03-27T01:36:33.792Z,99.80
2019-03-27T01:39:06.779Z,96.20
2019-03-27T01:41:38.335Z,91.70
2019-03-27T01:44:09.963Z,99.77
2019-03-27T01:46:41.969Z,101.97
2019-03-27T01:49:13.602Z,100.17
2019-03-27T01:51:45.282Z,99.37
2019-03-27T01:54:17.240Z,98.50
2019-03-27T01:56:48.903Z,96.20
2019-03-27T01:59:20.342Z,96.83
2019-03-27T02:01:51.918Z,99.70
2019-03-27T02:04:23.681Z,91.93
2019-03-27T02:06:55.542Z,89.80
2019-03-27T02:09:28.815Z,94.13
2019-03-27T02:12:00.595Z,95.60
2019-03-27T02:14:32.136Z,99.50
2019-03-27T02:17:03.806Z,93.30
2019-03-27T02:19:35.668Z,94.40
2019-03-27T02:22:08.678Z,98.13
2019-03-27T02:24:40.390Z,98.20
2019-03-27T02:27:12.182Z,101.73
2019-03-27T02:29:43.614Z,99.13
2019-03-27T02:32:15.176Z,99.20
2019-03-27T02:34:47.015Z,98.70
2019-03-27T02:37:18.820Z,103.93
2019-03-27T02:39:52.322Z,101.27
2019-03-27T02:42:23.969Z,105.90
2019-03-27T02:44:55.834Z,96.60
2019-03-27T02:47:27.486Z,105.70
2019-03-27T02:49:59.157Z,107.37
2019-03-27T02:52:32.219Z,106.50
2019-03-27T02:55:05.253Z,96.70
2019-03-27T02:57:36.887Z,102.20
2019-03-27T03:00:12.081Z,97.90
2019-03-27T03:02:44.096Z,112.67
2019-03-27T03:05:15.959Z,107.70
2019-03-27T03:07:47.384Z,104.17
2019-03-27T03:10:18.947Z,106.23
2019-03-27T03:12:50.826Z,110.07
2019-03-27T03:15:23.075Z,109.97
2019-03-27T03:17:54.652Z,105.90
2019-03-27T03:20:26.310Z,113.00
2019-03-27T03:22:57.950Z,105.20
2019-03-27T03:25:29.708Z,101.27
2019-03-27T03:28:02.718Z,106.43
2019-03-27T03:30:34.357Z,99.60
2019-03-27T03:33:06.130Z,95.87
2019-03-27T03:35:38.091Z,96.37
2019-03-27T03:38:09.687Z,96.93
2019-03-27T03:40:42.528Z,99.70
2019-03-27T03:43:16.589Z,101.57
2019-03-27T03:45:48.310Z,99.10
2019-03-27T03:48:19.947Z,104.57
2019-03-27T03:50:51.617Z,99.80
2019-03-27T03:53:23.710Z,103.80
2019-03-27T03:55:55.449Z,95.33
2019-03-27T03:58:27.310Z,114.37
2019-03-27T04:00:59.690Z,102.43
2019-03-27T04:03:32.762Z,90.63
2019-03-27T04:06:04.125Z,135.23
2019-03-27T04:08:35.681Z,106.50
2019-03-27T04:11:07.546Z,103.07
2019-03-27T04:13:39.212Z,114.30
2019-03-27T04:16:11.067Z,153.67
2019-03-27T04:18:42.624Z,182.47
2019-03-27T04:21:14.156Z,198.37
2019-03-27T04:23:46.039Z,192.43
2019-03-27T04:26:17.610Z,174.47
2019-03-27T04:28:49.028Z,140.00
2019-03-27T04:31:20.916Z,128.50
2019-03-27T04:33:52.767Z,129.03
2019-03-27T04:36:24.408Z,119.80
2019-03-27T04:38:56.193Z,108.43
2019-03-27T04:41:27.745Z,103.43
2019-03-27T04:43:59.504Z,96.97
2019-03-27T04:46:31.084Z,90.40
2019-03-27T04:49:07.613Z,97.63
2019-03-27T04:51:37.318Z,99.43
2019-03-27T04:54:09.084Z,104.30
2019-03-27T04:56:40.944Z,95.03
2019-03-27T04:59:12.604Z,97.70
2019-03-27T05:01:44.181Z,95.00
2019-03-27T05:04:16.118Z,100.27
2019-03-27T05:06:47.583Z,91.23
2019-03-27T05:09:19.326Z,80.93
2019-03-27T05:11:51.206Z,86.57
2019-03-27T05:14:22.966Z,88.97
2019-03-27T05:16:54.814Z,91.70
2019-03-27T05:19:26.383Z,85.37
2019-03-27T05:21:58.353Z,90.20
2019-03-27T05:24:30.006Z,84.70
2019-03-27T05:27:01.969Z,70.63
2019-03-27T05:29:33.529Z,76.47
2019-03-27T05:32:04.977Z,73.87
2019-03-27T05:34:36.734Z,65.05
2019-03-27T05:37:08.481Z,76.10
2019-03-27T05:39:40.264Z,73.45
2019-03-27T05:42:12.210Z,62.30
2019-03-27T05:44:43.980Z,56.50
2019-03-27T05:47:15.829Z,49.53
2019-03-27T05:49:47.692Z,51.20
2019-03-27T05:52:19.165Z,52.73
2019-03-27T05:54:50.694Z,52.60
2019-03-27T05:57:22.576Z,48.65
2019-03-27T05:59:54.128Z,54.03
2019-03-27T06:02:25.885Z,51.92
2019-03-27T06:04:58.352Z,46.83
2019-03-27T06:07:30.224Z,45.25
2019-03-27T06:10:02.002Z,43.10
2019-03-27T06:12:33.673Z,46.00
2019-03-27T06:15:06.569Z,43.58
2019-03-27T06:17:38.185Z,49.33
2019-03-27T06:20:10.156Z,45.12
2019-03-27T06:22:41.626Z,44.60
2019-03-27T06:25:13.268Z,41.42
2019-03-27T06:27:45.116Z,44.75
2019-03-27T06:30:16.726Z,34.67
2019-03-27T06:32:48.238Z,40.38
2019-03-27T06:35:20.395Z,37.55
2019-03-27T06:37:51.873Z,35.65
2019-03-27T06:40:23.630Z,32.95
2019-03-27T06:42:55.058Z,34.75
2019-03-27T06:45:26.727Z,32.85
2019-03-27T06:47:58.382Z,32.28
2019-03-27T06:50:29.932Z,26.27
2019-03-27T06:53:01.692Z,25.62
2019-03-27T06:55:33.435Z,28.92
2019-03-27T06:58:05.195Z,26.25
2019-03-27T07:00:37.460Z,28.90
2019-03-27T07:03:09.041Z,29.25
2019-03-27T07:05:40.783Z,23.60
2019-03-27T07:08:12.450Z,27.48
2019-03-27T07:10:44.313Z,22.73
2019-03-27T07:13:15.990Z,21.73
2019-03-27T07:15:47.834Z,20.45
2019-03-27T07:18:19.705Z,16.15
2019-03-27T07:20:51.512Z,16.65
2019-03-27T07:23:22.922Z,16.80
2019-03-27T07:25:54.652Z,13.00
2019-03-27T07:28:27.540Z,15.50
2019-03-27T07:30:59.422Z,12.05
2019-03-27T07:33:31.161Z,12.93
2019-03-27T07:36:02.738Z,11.65
2019-03-27T07:38:34.876Z,14.65
2019-03-27T07:41:06.242Z,11.05
2019-03-27T07:43:37.859Z,10.82
2019-03-27T07:46:09.653Z,9.70
2019-03-27T07:48:53.215Z,11.03
2019-03-27T07:51:14.315Z,7.80
2019-03-27T07:53:47.010Z,8.05
2019-03-27T07:56:18.660Z,9.15
2019-03-27T07:58:50.211Z,9.80
2019-03-27T08:01:21.668Z,9.23
2019-03-27T08:03:56.399Z,11.63
2019-03-27T08:06:28.056Z,13.30
2019-03-27T08:08:59.806Z,12.30
2019-03-27T08:11:31.422Z,11.10
2019-03-27T08:14:02.929Z,12.98
2019-03-27T08:16:34.668Z,10.78
2019-03-27T08:19:08.022Z,11.10
2019-03-27T08:21:40.666Z,9.40
2019-03-27T08:24:12.216Z,8.58
2019-03-27T08:26:43.887Z,9.50
2019-03-27T08:29:15.617Z,8.35
2019-03-27T08:31:46.977Z,9.30
2019-03-27T08:34:18.751Z,11.15
2019-03-27T08:36:50.293Z,7.67
2019-03-27T08:39:21.827Z,8.38
2019-03-27T08:41:53.468Z,8.53
2019-03-27T08:44:25.230Z,9.90
2019-03-27T08:46:56.425Z,11.20
2019-03-27T08:49:27.810Z,12.20
2019-03-27T08:51:59.067Z,15.08
2019-03-27T08:54:31.121Z,45.15
2019-03-27T08:57:03.324Z,8.43
2019-03-27T08:59:35.105Z,8.88
2019-03-27T09:02:06.664Z,8.90
2019-03-27T09:04:38.322Z,6.83
2019-03-27T09:07:09.568Z,6.15
2019-03-27T09:09:41.309Z,7.15
2019-03-27T09:12:12.985Z,6.50
2019-03-27T09:14:44.555Z,7.85
2019-03-27T09:17:15.890Z,28.77
2019-03-27T09:19:47.434Z,14.75
2019-03-27T09:22:20.337Z,21.42
2019-03-27T09:24:52.202Z,8.13
2019-03-27T09:27:23.634Z,10.50
2019-03-27T09:29:55.012Z,9.28
2019-03-27T09:32:26.780Z,9.18
2019-03-27T09:34:58.360Z,7.65
2019-03-27T09:37:30.576Z,8.60
2019-03-27T09:40:02.142Z,8.58
2019-03-27T09:42:34.912Z,7.22
2019-03-27T09:45:09.738Z,9.40
2019-03-27T09:47:41.415Z,7.87
2019-03-27T09:50:14.608Z,9.08
2019-03-27T09:55:21.202Z,9.33
2019-03-27T09:57:52.761Z,10.90
2019-03-27T10:00:44.795Z,12.18
2019-03-27T10:03:16.257Z,13.08
2019-03-27T10:05:47.904Z,9.65
2019-03-27T10:08:19.476Z,14.07
2019-03-27T10:10:51.323Z,13.28
2019-03-27T10:13:22.660Z,11.38
2019-03-27T10:15:54.521Z,11.05
2019-03-27T10:18:26.295Z,12.55
2019-03-27T10:20:57.740Z,9.98
2019-03-27T10:23:29.399Z,11.12
2019-03-27T10:26:01.059Z,10.88
2019-03-27T10:28:32.701Z,12.95
2019-03-27T10:31:06.837Z,10.23
2019-03-27T10:33:38.694Z,13.32
2019-03-27T10:36:10.582Z,10.60
2019-03-27T10:38:42.222Z,12.43
2019-03-27T10:41:13.774Z,10.35
2019-03-27T10:43:45.305Z,13.00
2019-03-27T10:46:16.980Z,10.70
2019-03-27T10:48:52.921Z,9.43
2019-03-27T10:51:22.957Z,11.43
2019-03-27T10:53:54.414Z,11.00
2019-03-27T10:56:25.973Z,17.27
2019-03-27T10:58:57.841Z,14.90
2019-03-27T11:01:29.382Z,11.65
2019-03-27T11:04:01.127Z,14.87
2019-03-27T11:06:32.904Z,11.18
2019-03-27T11:09:07.743Z,16.90
2019-03-27T11:11:39.789Z,14.05
2019-03-27T11:14:11.464Z,12.55
2019-03-27T11:16:43.121Z,12.95
2019-03-27T11:19:14.775Z,14.18
2019-03-27T11:21:46.531Z,11.18
2019-03-27T11:24:18.097Z,10.93
2019-03-27T11:26:49.850Z,15.10
2019-03-27T11:29:21.684Z,12.65
2019-03-27T11:31:53.676Z,14.45
2019-03-27T11:34:25.542Z,11.85
2019-03-27T11:36:57.280Z,10.32
2019-03-27T11:39:28.731Z,14.50
2019-03-27T11:42:00.990Z,12.30
2019-03-27T11:44:32.578Z,18.42
2019-03-27T11:47:04.443Z,16.50
2019-03-27T11:49:35.889Z,15.75
2019-03-27T11:52:07.441Z,20.08
2019-03-27T11:54:39.187Z,17.02
2019-03-27T11:57:11.165Z,18.45
2019-03-27T11:59:53.155Z,21.33
2019-03-27T12:02:16.014Z,14.70
2019-03-27T12:04:47.569Z,14.80
2019-03-27T12:07:19.415Z,18.62
2019-03-27T12:09:51.334Z,15.85
2019-03-27T12:12:22.830Z,17.75
2019-03-27T12:23:08.799Z,24.18
2019-03-27T12:25:40.552Z,21.93
2019-03-27T12:28:12.113Z,19.12
2019-03-27T12:30:45.313Z,20.37
2019-03-27T12:33:17.181Z,25.23
2019-03-27T12:35:48.708Z,24.23
2019-03-27T12:38:20.792Z,25.88
2019-03-27T12:40:52.247Z,25.08
2019-03-27T12:43:24.610Z,29.00
2019-03-27T12:45:56.276Z,32.00
2019-03-27T12:48:28.137Z,32.38
2019-03-27T12:51:12.112Z,37.20
2019-03-27T12:53:33.297Z,27.10
2019-03-27T12:56:04.832Z,32.15
2019-03-27T12:58:36.311Z,24.77
2019-03-27T13:01:08.068Z,30.05
2019-03-27T13:03:39.397Z,33.75
2019-03-27T13:06:11.154Z,31.02
2019-03-27T13:08:42.827Z,24.40
2019-03-27T13:11:14.279Z,24.00
2019-03-27T13:13:45.937Z,21.70
2019-03-27T13:16:17.704Z,23.38
2019-03-27T13:18:49.441Z,24.77
2019-03-27T13:21:26.730Z,27.05
2019-03-27T13:23:54.181Z,29.63
2019-03-27T13:26:25.693Z,25.50
2019-03-27T13:28:57.415Z,18.85
2019-03-27T13:31:29.379Z,18.45
2019-03-27T13:34:01.329Z,45.50
2019-03-27T13:36:33.618Z,37.15
2019-03-27T13:39:07.499Z,40.80
2019-03-27T13:41:39.387Z,34.88
2019-03-27T13:44:11.260Z,25.17
2019-03-27T13:46:43.152Z,28.47
2019-03-27T13:49:14.778Z,27.30
2019-03-27T13:51:46.618Z,23.57
2019-03-27T13:54:18.278Z,19.57
2019-03-27T13:56:49.829Z,21.15
2019-03-27T13:59:22.424Z,29.65
2019-03-27T14:01:54.278Z,26.33
2019-03-27T14:04:26.160Z,26.35
2019-03-27T14:06:57.604Z,26.02
2019-03-27T14:09:29.427Z,26.75
2019-03-27T14:12:01.330Z,29.42
2019-03-27T14:14:33.214Z,32.03
2019-03-27T14:17:04.622Z,30.45
2019-03-27T14:19:36.775Z,30.72
2019-03-27T14:22:08.249Z,27.80
2019-03-27T14:24:39.922Z,30.00
2019-03-27T14:27:11.477Z,34.80
2019-03-27T14:29:45.566Z,36.53
2019-03-27T14:32:18.661Z,36.00
2019-03-27T14:34:53.680Z,35.30
2019-03-27T14:37:23.429Z,37.63
2019-03-27T14:39:55.684Z,35.70
2019-03-27T14:42:27.239Z,33.07
2019-03-27T14:44:58.709Z,33.97
2019-03-27T14:47:30.370Z,35.57
2019-03-27T14:50:02.440Z,37.97
2019-03-27T14:52:34.097Z,36.13
2019-03-27T14:55:07.995Z,36.80
2019-03-27T14:57:40.473Z,44.97
2019-03-27T15:00:12.217Z,46.50
2019-03-27T15:02:44.299Z,67.37
2019-03-27T15:05:16.061Z,63.33
2019-03-27T15:07:48.072Z,76.37
2019-03-27T15:10:19.579Z,90.20
2019-03-27T15:12:51.238Z,70.77
2019-03-27T15:15:22.902Z,86.73
2019-03-27T15:17:54.326Z,108.27
2019-03-27T15:20:26.088Z,114.83
2019-03-27T15:22:57.866Z,93.97
2019-03-27T15:25:29.516Z,120.33
2019-03-27T15:28:01.160Z,110.70
2019-03-27T15:30:33.146Z,102.00
2019-03-27T15:33:06.206Z,95.20
2019-03-27T15:35:37.703Z,94.67
2019-03-27T15:38:09.543Z,91.33
2019-03-27T15:40:45.503Z,85.43
2019-03-27T15:43:18.996Z,85.67
2019-03-27T15:45:50.684Z,82.80
2019-03-27T15:48:22.292Z,77.87
2019-03-27T15:50:58.583Z,70.73
2019-03-27T15:53:27.165Z,70.77
2019-03-27T15:55:59.144Z,74.57
2019-03-27T15:58:30.985Z,82.47
2019-03-27T16:01:04.182Z,89.77
2019-03-27T16:03:35.864Z,83.37
2019-03-27T16:06:07.296Z,94.33
2019-03-27T16:08:39.259Z,91.03
2019-03-27T16:11:10.925Z,69.83
2019-03-27T16:13:42.680Z,69.33
2019-03-27T16:16:14.620Z,79.17
2019-03-27T16:18:46.388Z,84.23
2019-03-27T16:21:18.252Z,80.27
2019-03-27T16:24:05.507Z,79.15
2019-03-27T16:26:25.240Z,68.17
2019-03-27T16:28:56.894Z,69.00
2019-03-27T16:31:28.558Z,75.60
2019-03-27T16:34:03.134Z,73.13
2019-03-27T16:36:34.728Z,77.13
2019-03-27T16:39:07.327Z,88.17
2019-03-27T16:41:38.767Z,87.30
2019-03-27T16:44:14.428Z,96.87
2019-03-27T16:46:46.091Z,93.30
2019-03-27T16:49:18.264Z,91.90
2019-03-27T16:51:49.806Z,98.63
2019-03-27T16:54:21.773Z,108.70
2019-03-27T16:56:54.046Z,115.40
2019-03-27T16:59:25.503Z,122.50
2019-03-27T17:01:57.260Z,124.23
2019-03-27T17:04:28.716Z,133.43
2019-03-27T17:07:00.415Z,133.23
2019-03-27T17:09:32.129Z,131.50
2019-03-27T17:12:03.790Z,134.17
2019-03-27T17:14:35.668Z,142.90
2019-03-27T17:17:07.199Z,145.33
2019-03-27T17:19:39.056Z,154.00
2019-03-27T17:22:19.275Z,161.77
2019-03-27T17:24:44.024Z,173.87
2019-03-27T17:27:15.603Z,163.60
2019-03-27T17:29:47.329Z,175.20
2019-03-27T17:32:19.938Z,165.13
2019-03-27T17:34:52.012Z,169.43
2019-03-27T17:37:23.645Z,176.73
2019-03-27T17:39:55.373Z,151.20
2019-03-27T17:42:27.677Z,152.40
2019-03-27T17:44:59.322Z,147.47
2019-03-27T17:47:31.099Z,156.70
2019-03-27T17:50:02.642Z,126.63
2019-03-27T17:52:38.189Z,126.43
2019-03-27T17:55:09.132Z,129.57
2019-03-27T17:57:40.585Z,122.90
2019-03-27T18:00:15.419Z,118.93
2019-03-27T18:02:46.968Z,120.53
2019-03-27T18:05:18.404Z,111.27
2019-03-27T18:07:50.582Z,112.73
2019-03-27T18:10:22.455Z,119.00
2019-03-27T18:12:54.318Z,141.50
2019-03-27T18:15:26.193Z,144.03
2019-03-27T18:17:57.839Z,135.80
2019-03-27T18:20:29.485Z,139.20
2019-03-27T18:23:01.140Z,128.70
2019-03-27T18:25:33.011Z,126.27
2019-03-27T18:28:04.454Z,125.53
2019-03-27T18:30:36.330Z,135.97
2019-03-27T18:33:08.084Z,109.13
2019-03-27T18:35:39.769Z,127.20
2019-03-27T18:38:11.603Z,97.93
2019-03-27T18:40:43.157Z,84.50
2019-03-27T18:43:14.974Z,80.27
2019-03-27T18:45:46.883Z,66.83
2019-03-27T18:48:18.563Z,66.33
2019-03-27T18:50:50.921Z,58.20
2019-03-27T18:53:22.418Z,53.63
2019-03-27T18:55:54.312Z,52.30
2019-03-27T18:58:25.882Z,50.20
2019-03-27T19:00:57.458Z,47.37
2019-03-27T19:03:29.205Z,44.73
2019-03-27T19:06:00.838Z,48.07
2019-03-27T19:08:32.511Z,45.93
2019-03-27T19:11:03.840Z,44.10
2019-03-27T19:13:35.721Z,48.90
2019-03-27T19:16:07.170Z,50.63
2019-03-27T19:18:38.942Z,47.33
2019-03-27T19:21:10.689Z,39.37
2019-03-27T19:23:42.250Z,27.50
2019-03-27T19:26:14.008Z,27.73
2019-03-27T19:28:45.746Z,32.63
2019-03-27T19:31:17.616Z,35.50
2019-03-27T19:33:49.609Z,42.37
2019-03-27T19:36:21.188Z,44.23
2019-03-27T19:38:53.111Z,37.53
2019-03-27T19:41:25.073Z,34.80
2019-03-27T19:43:56.937Z,39.33
2019-03-27T19:46:28.594Z,48.87
2019-03-27T19:49:00.196Z,59.27
2019-03-27T19:51:32.013Z,55.87
2019-03-27T19:54:03.574Z,68.73
2019-03-27T19:56:35.023Z,68.43
2019-03-27T19:59:06.792Z,63.37
2019-03-27T20:01:38.443Z,62.47
2019-03-27T20:04:11.113Z,63.63
2019-03-27T20:06:43.198Z,61.03
2019-03-27T20:09:14.837Z,61.40
2019-03-27T20:11:46.658Z,59.50
2019-03-27T20:14:18.139Z,52.47
2019-03-27T20:16:49.990Z,57.13
2019-03-27T20:19:21.860Z,58.87
2019-03-27T20:21:53.540Z,57.73
2019-03-27T20:24:25.302Z,63.17
2019-03-27T20:26:56.942Z,65.93
2019-03-27T20:29:28.493Z,58.87
2019-03-27T20:32:00.069Z,66.87
2019-03-27T20:34:31.713Z,59.67
2019-03-27T20:37:03.486Z,60.80
2019-03-27T20:39:35.145Z,73.50
2019-03-27T20:42:06.797Z,75.43
2019-03-27T20:44:38.459Z,73.53
2019-03-27T20:47:10.117Z,81.87
2019-03-27T20:49:41.953Z,81.30
2019-03-27T20:52:13.722Z,87.63
2019-03-27T20:54:54.822Z,82.00
2019-03-27T20:57:18.812Z,84.50
2019-03-27T20:59:50.577Z,86.30
2019-03-27T21:02:22.518Z,81.40
2019-03-27T21:04:54.195Z,76.30
2019-03-27T21:07:25.821Z,78.70
2019-03-27T21:09:57.370Z,70.07
2019-03-27T21:12:28.949Z,70.53
2019-03-27T21:15:00.689Z,64.70
2019-03-27T21:17:32.472Z,69.40
2019-03-27T21:20:05.394Z,57.97
2019-03-27T21:22:36.908Z,58.47
2019-03-27T21:25:09.785Z,60.37
2019-03-27T21:27:41.560Z,54.43
2019-03-27T21:30:13.211Z,56.30
2019-03-27T21:32:44.763Z,50.57
2019-03-27T21:35:16.746Z,52.23
2019-03-27T21:37:48.296Z,53.30
2019-03-27T21:40:19.950Z,56.87
2019-03-27T21:42:51.603Z,54.67
2019-03-27T21:45:23.400Z,56.33
2019-03-27T21:47:55.195Z,55.13
2019-03-27T21:50:26.993Z,51.57
2019-03-27T21:53:00.769Z,49.40
2019-03-27T21:55:42.213Z,52.33
2019-03-27T21:58:04.840Z,48.50
2019-03-27T22:00:39.076Z,51.70
2019-03-27T22:03:10.409Z,50.40
2019-03-27T22:05:42.249Z,50.80
2019-03-27T22:08:13.905Z,53.50
2019-03-27T22:10:45.670Z,54.07
2019-03-27T22:13:18.869Z,55.60
2019-03-27T22:15:51.850Z,56.50
2019-03-27T22:18:23.584Z,57.83
2019-03-27T22:20:55.281Z,60.30
2019-03-27T22:23:26.898Z,62.97
2019-03-27T22:25:58.582Z,60.13
2019-03-27T22:28:30.112Z,60.43
2019-03-27T22:31:02.004Z,61.27
2019-03-27T22:33:33.528Z,71.70
2019-03-27T22:36:05.088Z,66.13
2019-03-27T22:38:36.972Z,68.47
2019-03-27T22:41:08.637Z,65.23
2019-03-27T22:43:40.284Z,71.93
2019-03-27T22:46:11.846Z,71.20
2019-03-27T22:48:43.470Z,72.63
2019-03-27T22:51:15.028Z,76.10
2019-03-27T22:53:46.910Z,70.37
2019-03-27T22:56:18.673Z,75.43
2019-03-27T22:58:50.231Z,67.13
2019-03-27T23:01:21.963Z,65.63
2019-03-27T23:03:53.754Z,61.10
2019-03-27T23:06:25.620Z,63.67
2019-03-27T23:08:57.072Z,60.37
2019-03-27T23:11:28.875Z,60.47
2019-03-27T23:14:00.386Z,58.60
2019-03-27T23:16:32.146Z,58.00
2019-03-27T23:19:03.773Z,58.37
2019-03-27T23:21:35.770Z,62.23
2019-03-27T23:24:08.221Z,49.73
2019-03-27T23:26:40.015Z,50.10
2019-03-27T23:29:11.670Z,53.13
2019-03-27T23:31:44.524Z,52.17
2019-03-27T23:34:16.382Z,42.30
2019-03-27T23:36:48.072Z,46.40
2019-03-27T23:39:19.730Z,46.47
2019-03-27T23:41:51.296Z,47.43
2019-03-27T23:44:23.018Z,46.93
2019-03-27T23:46:54.698Z,46.83
2019-03-27T23:49:27.690Z,45.23
2019-03-27T23:51:59.447Z,47.37
2019-03-27T23:54:31.110Z,49.43
2019-03-27T23:57:02.769Z,46.77
2019-03-27T23:59:34.492Z,44.30
